Aviation Digital Data Service (ADDS)

Output produced by METARs form (1827 UTC 22 November 2017)
found at http://www.aviationweather.gov/adds/metars/
 
KBWI 221754Z 29022G28KT 10SM SCT050 12/00 A2999 RMK AO2 PK WND 29032/1713 SLP153 T01170000 10139 20089 51012
KBWI 221726Z 2218/2324 32015G24KT P6SM FEW250 
     FM230000 33010KT P6SM SKC 
     FM230800 33006KT P6SM SKC 
     FM231900 27005KT P6SM FEW250
       
KMTN 221745Z 29017G27KT 260V320 10SM SCT055 13/02 A2999
KMTN 221726Z 2218/2318 31015G24KT P6SM FEW250 
     FM230000 34011KT P6SM SKC 
     FM230700 34007KT P6SM SKC
       
KCGE 221805Z AUTO 31013G24KT 10SM CLR 14/03 A2996 RMK A01
KADW 221756Z AUTO 33020G25KT 10SM FEW050 12/M01 A2999 RMK AO2 PK WND 32031/49 SLP163 60000 T01181007 10137 20096 52014 $
TAF KADW 221700Z 2217/2323 31015G25KT 9999 FEW040 QNH2990INS 
     TEMPO 2217/2221 32020G30KT 510003 
     BECMG 2222/2223 33009KT 9999 SKC QNH3002INS TX14/2218Z TNM01/2311Z
       
KCBE 221806Z AUTO 32010G21KT 291V001 10SM SCT009 SCT016 SCT027 06/00 A3015 RMK AO1
KFME 221806Z AUTO 28015G26KT 10SM CLR 11/00 A3002 RMK AO1
KFDK 221747Z 33020G26KT 10SM BKN047 11/M03 A3006
KGAI 221756Z AUTO 31007G16KT 240V350 10SM BKN048 10/M02 A3003 RMK AO2 PK WND 29028/1701 SLP200 T01001017 10122 20078 51013
KHGR 221753Z 30017KT 10SM BKN043 08/M02 A3005 RMK AO2 PK WND 31026/1732 SLP187 T00781017 10100 20078 51006
K2W6 221806Z AUTO 32008G17KT 300V000 10SM CLR 14/02 A2999 RMK AO1
K2G4 221810Z AUTO 32008KT 292V002 1SM OVC002 M02/M02 A3003 RMK AO1
KOXB 221753Z AUTO 33015G20KT 10SM SCT095 15/07 A2992 RMK AO2 SLP130 60011 T01500067 10156 20133 51004
KSBY 221754Z 34021G25KT 10SM CLR 15/04 A2992 RMK AO2 SLP135 60013 T01500044 10156 20128 51002
KSBY 221749Z 2218/2318 33013G21KT P6SM SCT050 
     FM222300 34009KT P6SM SKC 
     FM230600 34003KT P6SM SKC 
     FM231500 33007KT P6SM SKC
       
KW29 221800Z AUTO 31014G22KT 10SM CLR 13/02 A2998 RMK AO2
KDMW 221805Z AUTO 31013G23KT 10SM BKN048 09/M01 A3002 RMK AO2